sensor_id;sensor_type;location;lat;lon;timestamp;pressure;altitude;pressure_sealevel;temperature;humidity
61014;BME280;46899;47.542;19.082;2023-05-29T00:00:23;100382.53;;;13.89;91.54
61014;BME280;46899;47.542;19.082;2023-05-29T00:03:26;100387.22;;;13.82;92.21
61014;BME280;46899;47.542;19.082;2023-05-29T00:06:29;100396.25;;;13.94;91.09
61014;BME280;46899;47.542;19.082;2023-05-29T00:09:32;100393.41;;;13.98;90.88
61014;BME280;46899;47.542;19.082;2023-05-29T00:12:34;100401.62;;;13.91;91.18
61014;BME280;46899;47.542;19.082;2023-05-29T00:15:37;100401.53;;;13.92;89.39
61014;BME280;46899;47.542;19.082;2023-05-29T00:18:39;100388.47;;;13.92;86.67
61014;BME280;46899;47.542;19.082;2023-05-29T00:21:48;100381.78;;;14.04;85.00
61014;BME280;46899;47.542;19.082;2023-05-29T00:24:50;100382.81;;;14.01;84.76
61014;BME280;46899;47.542;19.082;2023-05-29T00:27:53;100390.25;;;13.92;86.82
61014;BME280;46899;47.542;19.082;2023-05-29T00:30:55;100392.28;;;13.85;87.01
61014;BME280;46899;47.542;19.082;2023-05-29T00:33:58;100403.91;;;13.80;87.23
61014;BME280;46899;47.542;19.082;2023-05-29T00:37:00;100412.78;;;13.76;87.29
61014;BME280;46899;47.542;19.082;2023-05-29T00:40:04;100414.81;;;13.70;88.49
61014;BME280;46899;47.542;19.082;2023-05-29T00:43:07;100411.03;;;13.76;86.98
61014;BME280;46899;47.542;19.082;2023-05-29T00:46:09;100403.31;;;13.73;87.90
61014;BME280;46899;47.542;19.082;2023-05-29T00:49:13;100401.50;;;13.75;88.91
61014;BME280;46899;47.542;19.082;2023-05-29T00:52:16;100395.44;;;13.75;89.10
61014;BME280;46899;47.542;19.082;2023-05-29T00:55:19;100396.56;;;13.69;89.46
61014;BME280;46899;47.542;19.082;2023-05-29T00:58:22;100398.47;;;13.65;89.53
61014;BME280;46899;47.542;19.082;2023-05-29T01:01:24;100390.97;;;13.58;89.93
61014;BME280;46899;47.542;19.082;2023-05-29T01:04:27;100382.59;;;13.51;91.14
61014;BME280;46899;47.542;19.082;2023-05-29T01:07:30;100390.56;;;13.48;91.09
61014;BME280;46899;47.542;19.082;2023-05-29T01:10:33;100383.00;;;13.42;91.47
61014;BME280;46899;47.542;19.082;2023-05-29T01:13:36;100387.53;;;13.39;92.87
61014;BME280;46899;47.542;19.082;2023-05-29T01:16:59;100393.09;;;13.31;93.02
61014;BME280;46899;47.542;19.082;2023-05-29T01:20:11;100392.44;;;13.26;93.25
61014;BME280;46899;47.542;19.082;2023-05-29T01:27:13;100380.56;;;13.19;93.20
61014;BME280;46899;47.542;19.082;2023-05-29T01:29:56;100386.88;;;13.15;93.69
61014;BME280;46899;47.542;19.082;2023-05-29T01:33:03;100376.53;;;13.12;92.91
61014;BME280;46899;47.542;19.082;2023-05-29T01:36:07;100373.16;;;13.10;93.12
61014;BME280;46899;47.542;19.082;2023-05-29T01:39:10;100374.09;;;13.09;93.08
61014;BME280;46899;47.542;19.082;2023-05-29T01:42:12;100376.81;;;13.06;93.05
61014;BME280;46899;47.542;19.082;2023-05-29T01:45:16;100378.69;;;13.02;93.37
61014;BME280;46899;47.542;19.082;2023-05-29T01:48:21;100373.53;;;13.01;93.99
61014;BME280;46899;47.542;19.082;2023-05-29T01:51:23;100369.28;;;12.98;94.33
61014;BME280;46899;47.542;19.082;2023-05-29T01:54:26;100377.25;;;12.95;94.75
61014;BME280;46899;47.542;19.082;2023-05-29T01:57:29;100367.81;;;12.93;95.31
61014;BME280;46899;47.542;19.082;2023-05-29T02:00:32;100370.47;;;12.91;95.46
61014;BME280;46899;47.542;19.082;2023-05-29T02:03:35;100370.56;;;12.90;95.90
61014;BME280;46899;47.542;19.082;2023-05-29T02:06:37;100367.66;;;12.96;96.60
61014;BME280;46899;47.542;19.082;2023-05-29T02:09:40;100359.91;;;12.94;96.46
61014;BME280;46899;47.542;19.082;2023-05-29T02:12:43;100361.78;;;12.91;97.12
61014;BME280;46899;47.542;19.082;2023-05-29T02:15:48;100364.41;;;12.91;97.60
61014;BME280;46899;47.542;19.082;2023-05-29T02:18:51;100361.00;;;12.89;98.09
61014;BME280;46899;47.542;19.082;2023-05-29T02:21:54;100361.88;;;12.89;98.06
61014;BME280;46899;47.542;19.082;2023-05-29T02:24:57;100362.84;;;12.87;97.99
61014;BME280;46899;47.542;19.082;2023-05-29T02:28:00;100359.59;;;12.82;98.54
61014;BME280;46899;47.542;19.082;2023-05-29T02:31:03;100357.75;;;12.84;98.94
61014;BME280;46899;47.542;19.082;2023-05-29T02:34:06;100359.72;;;12.79;99.53
61014;BME280;46899;47.542;19.082;2023-05-29T02:37:08;100353.91;;;12.72;100.00
61014;BME280;46899;47.542;19.082;2023-05-29T02:40:11;100353.34;;;12.66;100.00
61014;BME280;46899;47.542;19.082;2023-05-29T02:43:14;100347.84;;;12.72;100.00
61014;BME280;46899;47.542;19.082;2023-05-29T02:46:16;100347.91;;;12.70;100.00
61014;BME280;46899;47.542;19.082;2023-05-29T02:49:19;100348.00;;;12.69;100.00
61014;BME280;46899;47.542;19.082;2023-05-29T02:52:21;100342.91;;;12.66;100.00
61014;BME280;46899;47.542;19.082;2023-05-29T02:55:25;100348.13;;;12.66;100.00
61014;BME280;46899;47.542;19.082;2023-05-29T02:58:28;100337.69;;;12.66;100.00
61014;BME280;46899;47.542;19.082;2023-05-29T03:01:30;100342.00;;;12.67;100.00
61014;BME280;46899;47.542;19.082;2023-05-29T03:04:35;100348.19;;;12.64;100.00
61014;BME280;46899;47.542;19.082;2023-05-29T03:07:37;100347.22;;;12.67;100.00
61014;BME280;46899;47.542;19.082;2023-05-29T03:10:40;100346.28;;;12.68;100.00
61014;BME280;46899;47.542;19.082;2023-05-29T03:13:42;100349.69;;;12.70;100.00
61014;BME280;46899;47.542;19.082;2023-05-29T03:16:45;100348.69;;;12.72;100.00
61014;BME280;46899;47.542;19.082;2023-05-29T03:19:48;100350.41;;;12.73;100.00
61014;BME280;46899;47.542;19.082;2023-05-29T03:22:51;100349.44;;;12.76;100.00
61014;BME280;46899;47.542;19.082;2023-05-29T03:25:54;100346.88;;;12.74;100.00
61014;BME280;46899;47.542;19.082;2023-05-29T03:28:57;100346.81;;;12.76;100.00
61014;BME280;46899;47.542;19.082;2023-05-29T03:31:59;100353.31;;;12.86;100.00
61014;BME280;46899;47.542;19.082;2023-05-29T03:35:02;100359.91;;;12.94;100.00
61014;BME280;46899;47.542;19.082;2023-05-29T03:38:06;100354.47;;;12.99;100.00
61014;BME280;46899;47.542;19.082;2023-05-29T03:41:08;100365.31;;;13.10;100.00
61014;BME280;46899;47.542;19.082;2023-05-29T03:44:11;100361.72;;;13.13;100.00
61014;BME280;46899;47.542;19.082;2023-05-29T03:47:14;100366.72;;;13.17;100.00
61014;BME280;46899;47.542;19.082;2023-05-29T03:50:17;100373.38;;;13.24;100.00
61014;BME280;46899;47.542;19.082;2023-05-29T03:53:19;100389.50;;;13.34;100.00
61014;BME280;46899;47.542;19.082;2023-05-29T03:56:22;100381.44;;;13.38;100.00
61014;BME280;46899;47.542;19.082;2023-05-29T03:59:25;100384.56;;;13.46;100.00
61014;BME280;46899;47.542;19.082;2023-05-29T04:02:27;100386.81;;;13.54;100.00
61014;BME280;46899;47.542;19.082;2023-05-29T04:05:31;100388.91;;;13.64;98.76
61014;BME280;46899;47.542;19.082;2023-05-29T04:08:34;100390.09;;;13.76;97.94
61014;BME280;46899;47.542;19.082;2023-05-29T04:11:37;100381.53;;;13.91;96.71
61014;BME280;46899;47.542;19.082;2023-05-29T04:14:40;100380.00;;;14.04;96.35
61014;BME280;46899;47.542;19.082;2023-05-29T04:17:43;100379.50;;;14.15;95.58
61014;BME280;46899;47.542;19.082;2023-05-29T04:20:46;100383.84;;;14.33;93.31
61014;BME280;46899;47.542;19.082;2023-05-29T04:23:51;100382.41;;;14.45;91.93
61014;BME280;46899;47.542;19.082;2023-05-29T04:26:54;100387.88;;;14.57;91.53
61014;BME280;46899;47.542;19.082;2023-05-29T04:29:58;100391.50;;;14.72;90.24
61014;BME280;46899;47.542;19.082;2023-05-29T04:33:01;100391.53;;;14.87;90.03
61014;BME280;46899;47.542;19.082;2023-05-29T04:36:06;100391.28;;;15.09;87.64
61014;BME280;46899;47.542;19.082;2023-05-29T04:39:11;100394.25;;;15.19;86.52
61014;BME280;46899;47.542;19.082;2023-05-29T04:42:14;100389.13;;;15.33;86.16
61014;BME280;46899;47.542;19.082;2023-05-29T04:45:18;100388.31;;;15.48;83.80
61014;BME280;46899;47.542;19.082;2023-05-29T04:48:23;100394.59;;;15.61;83.76
61014;BME280;46899;47.542;19.082;2023-05-29T04:51:25;100401.59;;;15.76;83.16
61014;BME280;46899;47.542;19.082;2023-05-29T04:54:30;100395.50;;;15.91;81.33
61014;BME280;46899;47.542;19.082;2023-05-29T04:57:34;100399.56;;;15.97;81.73
61014;BME280;46899;47.542;19.082;2023-05-29T05:00:37;100393.19;;;16.16;80.12
61014;BME280;46899;47.542;19.082;2023-05-29T05:03:42;100393.97;;;16.32;79.84
61014;BME280;46899;47.542;19.082;2023-05-29T05:06:47;100398.72;;;16.41;79.57
61014;BME280;46899;47.542;19.082;2023-05-29T05:09:50;100394.09;;;16.61;78.27
61014;BME280;46899;47.542;19.082;2023-05-29T05:12:53;100403.25;;;16.69;76.52
61014;BME280;46899;47.542;19.082;2023-05-29T05:15:56;100404.19;;;16.82;76.61
61014;BME280;46899;47.542;19.082;2023-05-29T05:19:00;100410.78;;;17.03;76.19
61014;BME280;46899;47.542;19.082;2023-05-29T05:22:05;100415.75;;;17.22;74.61
61014;BME280;46899;47.542;19.082;2023-05-29T05:25:08;100413.53;;;17.30;74.27
61014;BME280;46899;47.542;19.082;2023-05-29T05:28:10;100406.19;;;17.49;73.06
61014;BME280;46899;47.542;19.082;2023-05-29T05:31:13;100413.34;;;17.47;72.48
61014;BME280;46899;47.542;19.082;2023-05-29T05:34:16;100414.47;;;17.57;72.10
61014;BME280;46899;47.542;19.082;2023-05-29T05:37:19;100400.94;;;17.90;71.90
61014;BME280;46899;47.542;19.082;2023-05-29T05:40:25;100400.22;;;18.15;69.96
61014;BME280;46899;47.542;19.082;2023-05-29T05:43:29;100406.16;;;18.31;69.71
61014;BME280;46899;47.542;19.082;2023-05-29T05:46:32;100401.22;;;18.53;69.11
61014;BME280;46899;47.542;19.082;2023-05-29T05:49:35;100415.03;;;18.69;68.83
61014;BME280;46899;47.542;19.082;2023-05-29T05:52:38;100412.81;;;18.76;67.72
61014;BME280;46899;47.542;19.082;2023-05-29T05:55:41;100409.47;;;18.86;68.00
61014;BME280;46899;47.542;19.082;2023-05-29T05:58:43;100413.69;;;19.01;65.22
61014;BME280;46899;47.542;19.082;2023-05-29T06:01:46;100420.97;;;18.98;65.41
61014;BME280;46899;47.542;19.082;2023-05-29T06:04:49;100416.03;;;19.31;65.32
61014;BME280;46899;47.542;19.082;2023-05-29T06:07:52;100421.81;;;19.49;65.05
61014;BME280;46899;47.542;19.082;2023-05-29T06:10:55;100427.41;;;19.57;63.50
61014;BME280;46899;47.542;19.082;2023-05-29T06:13:58;100420.16;;;19.84;63.24
61014;BME280;46899;47.542;19.082;2023-05-29T06:17:01;100426.63;;;20.04;61.10
61014;BME280;46899;47.542;19.082;2023-05-29T06:20:04;100428.47;;;20.27;60.39
61014;BME280;46899;47.542;19.082;2023-05-29T06:23:13;100436.91;;;20.32;59.86
61014;BME280;46899;47.542;19.082;2023-05-29T06:26:16;100440.81;;;20.85;57.33
61014;BME280;46899;47.542;19.082;2023-05-29T06:29:19;100439.00;;;21.75;52.17
61014;BME280;46899;47.542;19.082;2023-05-29T06:32:21;100442.00;;;21.71;51.10
61014;BME280;46899;47.542;19.082;2023-05-29T06:35:25;100432.47;;;21.79;51.51
61014;BME280;46899;47.542;19.082;2023-05-29T06:38:28;100450.16;;;22.12;51.86
61014;BME280;46899;47.542;19.082;2023-05-29T06:41:31;100443.59;;;22.59;51.25
61014;BME280;46899;47.542;19.082;2023-05-29T06:44:33;100452.62;;;22.57;50.01
61014;BME280;46899;47.542;19.082;2023-05-29T06:47:36;100445.47;;;23.51;47.85
61014;BME280;46899;47.542;19.082;2023-05-29T06:50:39;100441.38;;;26.66;40.37
61014;BME280;46899;47.542;19.082;2023-05-29T06:53:45;100443.25;;;29.94;33.43
61014;BME280;46899;47.542;19.082;2023-05-29T06:56:47;100446.81;;;32.46;29.29
61014;BME280;46899;47.542;19.082;2023-05-29T07:00:10;100447.88;;;33.84;26.69
61014;BME280;46899;47.542;19.082;2023-05-29T07:03:15;100446.06;;;34.90;25.36
61014;BME280;46899;47.542;19.082;2023-05-29T07:06:18;100449.34;;;35.45;25.06
61014;BME280;46899;47.542;19.082;2023-05-29T07:09:21;100454.37;;;35.35;24.00
61014;BME280;46899;47.542;19.082;2023-05-29T07:12:24;100459.41;;;37.20;22.09
61014;BME280;46899;47.542;19.082;2023-05-29T07:15:26;100450.87;;;35.92;22.87
61014;BME280;46899;47.542;19.082;2023-05-29T07:18:30;100451.63;;;36.50;22.81
61014;BME280;46899;47.542;19.082;2023-05-29T07:21:35;100454.37;;;34.95;25.11
61014;BME280;46899;47.542;19.082;2023-05-29T07:24:38;100452.09;;;33.99;26.29
61014;BME280;46899;47.542;19.082;2023-05-29T07:27:41;100458.31;;;34.00;25.94
61014;BME280;46899;47.542;19.082;2023-05-29T07:30:44;100453.22;;;32.60;28.31
61014;BME280;46899;47.542;19.082;2023-05-29T07:33:47;100464.09;;;30.23;31.21
61014;BME280;46899;47.542;19.082;2023-05-29T07:37:00;100456.75;;;28.75;34.63
61014;BME280;46899;47.542;19.082;2023-05-29T07:40:03;100457.28;;;27.37;37.47
61014;BME280;46899;47.542;19.082;2023-05-29T07:43:19;100464.44;;;26.05;39.99
61014;BME280;46899;47.542;19.082;2023-05-29T07:46:21;100467.41;;;25.65;40.91
61014;BME280;46899;47.542;19.082;2023-05-29T07:49:25;100473.59;;;25.00;43.43
61014;BME280;46899;47.542;19.082;2023-05-29T07:52:27;100475.16;;;24.93;43.69
61014;BME280;46899;47.542;19.082;2023-05-29T07:55:30;100483.75;;;25.52;42.21
61014;BME280;46899;47.542;19.082;2023-05-29T07:58:33;100482.19;;;28.63;35.88
61014;BME280;46899;47.542;19.082;2023-05-29T08:01:36;100482.47;;;29.56;34.15
61014;BME280;46899;47.542;19.082;2023-05-29T08:04:40;100478.34;;;30.99;32.53
61014;BME280;46899;47.542;19.082;2023-05-29T08:07:43;100491.81;;;34.66;26.78
61014;BME280;46899;47.542;19.082;2023-05-29T08:10:46;100485.97;;;35.67;24.47
61014;BME280;46899;47.542;19.082;2023-05-29T08:13:49;100479.34;;;36.14;24.77
61014;BME280;46899;47.542;19.082;2023-05-29T08:16:52;100484.06;;;37.43;22.62
61014;BME280;46899;47.542;19.082;2023-05-29T08:19:54;100491.28;;;38.40;21.69
61014;BME280;46899;47.542;19.082;2023-05-29T08:22:57;100486.81;;;38.75;21.53
61014;BME280;46899;47.542;19.082;2023-05-29T08:25:59;100477.91;;;37.91;21.70
61014;BME280;46899;47.542;19.082;2023-05-29T08:29:03;100476.63;;;38.82;21.05
61014;BME280;46899;47.542;19.082;2023-05-29T08:32:05;100478.88;;;40.01;20.58
61014;BME280;46899;47.542;19.082;2023-05-29T08:35:08;100469.06;;;40.17;20.10
61014;BME280;46899;47.542;19.082;2023-05-29T08:38:11;100470.44;;;39.91;20.35
61014;BME280;46899;47.542;19.082;2023-05-29T08:44:29;100468.72;;;38.81;21.28
61014;BME280;46899;47.542;19.082;2023-05-29T08:47:33;100465.66;;;39.47;20.58
61014;BME280;46899;47.542;19.082;2023-05-29T08:50:37;100461.78;;;38.55;21.29
61014;BME280;46899;47.542;19.082;2023-05-29T08:53:42;100458.28;;;38.18;21.67
61014;BME280;46899;47.542;19.082;2023-05-29T08:56:45;100459.84;;;37.78;21.58
61014;BME280;46899;47.542;19.082;2023-05-29T08:59:50;100459.72;;;38.80;21.08
61014;BME280;46899;47.542;19.082;2023-05-29T09:02:53;100459.44;;;39.86;20.24
61014;BME280;46899;47.542;19.082;2023-05-29T09:05:58;100453.13;;;38.58;21.21
61014;BME280;46899;47.542;19.082;2023-05-29T09:09:02;100452.38;;;39.74;20.01
61014;BME280;46899;47.542;19.082;2023-05-29T09:12:06;100450.63;;;39.10;20.62
61014;BME280;46899;47.542;19.082;2023-05-29T09:15:16;100456.44;;;39.99;19.89
61014;BME280;46899;47.542;19.082;2023-05-29T09:18:19;100453.38;;;39.33;20.43
61014;BME280;46899;47.542;19.082;2023-05-29T09:21:26;100454.19;;;37.98;21.87
61014;BME280;46899;47.542;19.082;2023-05-29T09:24:30;100442.31;;;35.95;24.50
61014;BME280;46899;47.542;19.082;2023-05-29T09:27:38;100442.22;;;33.10;27.84
61014;BME280;46899;47.542;19.082;2023-05-29T09:30:42;100432.56;;;32.31;29.41
61014;BME280;46899;47.542;19.082;2023-05-29T09:33:48;100439.00;;;31.50;30.79
61014;BME280;46899;47.542;19.082;2023-05-29T09:36:53;100437.69;;;30.34;32.35
61014;BME280;46899;47.542;19.082;2023-05-29T09:40:06;100433.13;;;29.65;32.81
61014;BME280;46899;47.542;19.082;2023-05-29T09:43:10;100437.75;;;29.49;32.86
61014;BME280;46899;47.542;19.082;2023-05-29T09:46:14;100440.13;;;29.83;33.26
61014;BME280;46899;47.542;19.082;2023-05-29T09:49:17;100437.56;;;29.42;33.77
61014;BME280;46899;47.542;19.082;2023-05-29T09:52:24;100437.44;;;29.11;34.26
61014;BME280;46899;47.542;19.082;2023-05-29T09:55:27;100442.69;;;28.65;35.26
61014;BME280;46899;47.542;19.082;2023-05-29T09:58:30;100426.22;;;28.27;35.96
61014;BME280;46899;47.542;19.082;2023-05-29T10:01:35;100433.25;;;28.36;36.67
61014;BME280;46899;47.542;19.082;2023-05-29T10:04:38;100428.94;;;28.35;36.63
61014;BME280;46899;47.542;19.082;2023-05-29T10:07:43;100443.56;;;27.99;37.46
61014;BME280;46899;47.542;19.082;2023-05-29T10:10:48;100448.00;;;28.32;36.45
61014;BME280;46899;47.542;19.082;2023-05-29T10:13:52;100447.28;;;28.22;36.97
61014;BME280;46899;47.542;19.082;2023-05-29T10:16:55;100443.91;;;28.12;37.05
61014;BME280;46899;47.542;19.082;2023-05-29T10:20:00;100448.69;;;28.59;36.70
61014;BME280;46899;47.542;19.082;2023-05-29T10:23:04;100441.41;;;28.11;37.21
61014;BME280;46899;47.542;19.082;2023-05-29T10:26:10;100451.00;;;28.45;36.50
61014;BME280;46899;47.542;19.082;2023-05-29T10:29:19;100451.00;;;28.29;37.95
61014;BME280;46899;47.542;19.082;2023-05-29T10:32:43;100450.28;;;28.11;37.87
61014;BME280;46899;47.542;19.082;2023-05-29T10:35:57;100449.19;;;27.88;39.06
61014;BME280;46899;47.542;19.082;2023-05-29T10:39:03;100459.94;;;27.62;39.22
61014;BME280;46899;47.542;19.082;2023-05-29T10:45:51;100439.41;;;28.13;39.08
61014;BME280;46899;47.542;19.082;2023-05-29T10:48:54;100443.25;;;28.10;39.61
61014;BME280;46899;47.542;19.082;2023-05-29T10:51:59;100443.56;;;27.99;40.00
61014;BME280;46899;47.542;19.082;2023-05-29T10:55:04;100432.12;;;27.89;40.26
61014;BME280;46899;47.542;19.082;2023-05-29T10:58:08;100432.69;;;27.59;40.15
61014;BME280;46899;47.542;19.082;2023-05-29T11:01:11;100435.88;;;26.85;41.81
61014;BME280;46899;47.542;19.082;2023-05-29T11:07:31;100436.16;;;27.26;42.19
61014;BME280;46899;47.542;19.082;2023-05-29T11:10:44;100428.28;;;27.50;40.73
61014;BME280;46899;47.542;19.082;2023-05-29T11:13:53;100432.31;;;27.02;41.56
61014;BME280;46899;47.542;19.082;2023-05-29T11:16:57;100425.75;;;26.97;41.34
61014;BME280;46899;47.542;19.082;2023-05-29T11:20:04;100430.44;;;27.21;41.05
61014;BME280;46899;47.542;19.082;2023-05-29T11:23:08;100433.84;;;27.31;41.39
61014;BME280;46899;47.542;19.082;2023-05-29T11:26:23;100435.62;;;27.48;41.25
61014;BME280;46899;47.542;19.082;2023-05-29T11:29:28;100429.66;;;27.02;41.46
61014;BME280;46899;47.542;19.082;2023-05-29T11:32:30;100429.78;;;26.58;42.04
61014;BME280;46899;47.542;19.082;2023-05-29T11:35:36;100426.25;;;26.57;41.65
61014;BME280;46899;47.542;19.082;2023-05-29T11:38:40;100421.94;;;26.56;41.38
61014;BME280;46899;47.542;19.082;2023-05-29T11:41:43;100418.62;;;26.62;41.50
61014;BME280;46899;47.542;19.082;2023-05-29T11:44:45;100419.47;;;26.45;42.00
61014;BME280;46899;47.542;19.082;2023-05-29T11:47:55;100418.12;;;26.41;42.97
61014;BME280;46899;47.542;19.082;2023-05-29T11:50:58;100420.91;;;26.57;43.06
61014;BME280;46899;47.542;19.082;2023-05-29T11:54:08;100408.19;;;26.86;42.26
61014;BME280;46899;47.542;19.082;2023-05-29T11:57:11;100409.31;;;26.84;42.11
61014;BME280;46899;47.542;19.082;2023-05-29T12:00:16;100399.19;;;26.70;42.71
61014;BME280;46899;47.542;19.082;2023-05-29T12:03:19;100394.91;;;26.59;42.93
61014;BME280;46899;47.542;19.082;2023-05-29T12:06:32;100390.38;;;26.34;42.98
61014;BME280;46899;47.542;19.082;2023-05-29T12:09:36;100382.06;;;26.19;43.33
61014;BME280;46899;47.542;19.082;2023-05-29T12:12:38;100380.78;;;25.96;44.22
61014;BME280;46899;47.542;19.082;2023-05-29T12:15:42;100383.44;;;25.78;44.52
61014;BME280;46899;47.542;19.082;2023-05-29T12:18:45;100363.91;;;25.24;45.26
61014;BME280;46899;47.542;19.082;2023-05-29T12:21:48;100371.84;;;25.06;45.47
61014;BME280;46899;47.542;19.082;2023-05-29T12:24:50;100367.72;;;25.21;45.65
61014;BME280;46899;47.542;19.082;2023-05-29T12:27:55;100362.13;;;25.14;45.63
61014;BME280;46899;47.542;19.082;2023-05-29T12:30:58;100355.41;;;25.20;45.17
61014;BME280;46899;47.542;19.082;2023-05-29T12:34:11;100361.56;;;25.11;45.40
61014;BME280;46899;47.542;19.082;2023-05-29T12:37:14;100345.03;;;25.17;45.40
61014;BME280;46899;47.542;19.082;2023-05-29T12:40:18;100349.34;;;25.55;45.03
61014;BME280;46899;47.542;19.082;2023-05-29T12:43:21;100354.28;;;25.50;44.45
61014;BME280;46899;47.542;19.082;2023-05-29T12:46:25;100345.37;;;26.04;43.98
61014;BME280;46899;47.542;19.082;2023-05-29T12:49:27;100349.94;;;26.90;41.17
61014;BME280;46899;47.542;19.082;2023-05-29T12:52:31;100348.16;;;26.98;39.57
61014;BME280;46899;47.542;19.082;2023-05-29T12:55:34;100346.63;;;26.96;39.46
61014;BME280;46899;47.542;19.082;2023-05-29T12:58:44;100346.56;;;27.13;37.75
61014;BME280;46899;47.542;19.082;2023-05-29T13:01:47;100345.47;;;27.32;37.34
61014;BME280;46899;47.542;19.082;2023-05-29T13:04:49;100346.59;;;27.22;36.73
61014;BME280;46899;47.542;19.082;2023-05-29T13:07:52;100350.44;;;27.53;37.00
61014;BME280;46899;47.542;19.082;2023-05-29T13:10:55;100338.72;;;27.12;37.74
61014;BME280;46899;47.542;19.082;2023-05-29T13:13:57;100345.13;;;27.27;37.67
61014;BME280;46899;47.542;19.082;2023-05-29T13:17:00;100339.22;;;27.41;38.00
61014;BME280;46899;47.542;19.082;2023-05-29T13:20:03;100344.03;;;27.38;39.22
61014;BME280;46899;47.542;19.082;2023-05-29T13:23:09;100340.03;;;27.42;38.10
61014;BME280;46899;47.542;19.082;2023-05-29T13:26:12;100341.19;;;27.39;37.44
61014;BME280;46899;47.542;19.082;2023-05-29T13:29:15;100336.22;;;27.10;37.21
61014;BME280;46899;47.542;19.082;2023-05-29T13:32:17;100330.41;;;26.46;38.56
61014;BME280;46899;47.542;19.082;2023-05-29T13:35:20;100325.06;;;26.89;38.12
61014;BME280;46899;47.542;19.082;2023-05-29T13:38:22;100316.53;;;27.20;38.08
61014;BME280;46899;47.542;19.082;2023-05-29T13:41:25;100323.16;;;27.41;37.63
61014;BME280;46899;47.542;19.082;2023-05-29T13:44:27;100321.22;;;27.59;37.22
61014;BME280;46899;47.542;19.082;2023-05-29T13:47:30;100317.75;;;27.83;36.63
61014;BME280;46899;47.542;19.082;2023-05-29T13:50:34;100318.41;;;27.77;37.21
61014;BME280;46899;47.542;19.082;2023-05-29T13:53:37;100318.56;;;27.67;37.47
61014;BME280;46899;47.542;19.082;2023-05-29T13:56:39;100310.88;;;27.31;37.46
61014;BME280;46899;47.542;19.082;2023-05-29T13:59:42;100309.50;;;27.19;38.10
61014;BME280;46899;47.542;19.082;2023-05-29T14:02:44;100303.72;;;26.97;39.15
61014;BME280;46899;47.542;19.082;2023-05-29T14:05:47;100312.69;;;26.80;37.99
61014;BME280;46899;47.542;19.082;2023-05-29T14:08:50;100303.53;;;26.39;38.68
61014;BME280;46899;47.542;19.082;2023-05-29T14:11:57;100299.41;;;26.71;37.60
61014;BME280;46899;47.542;19.082;2023-05-29T14:15:03;100307.34;;;26.80;38.10
61014;BME280;46899;47.542;19.082;2023-05-29T14:18:06;100290.66;;;27.20;37.18
61014;BME280;46899;47.542;19.082;2023-05-29T14:21:10;100292.97;;;27.57;36.50
61014;BME280;46899;47.542;19.082;2023-05-29T14:24:14;100297.25;;;27.42;36.50
61014;BME280;46899;47.542;19.082;2023-05-29T14:27:17;100307.41;;;27.96;35.96
61014;BME280;46899;47.542;19.082;2023-05-29T14:30:22;100302.91;;;28.53;35.37
61014;BME280;46899;47.542;19.082;2023-05-29T14:33:25;100306.59;;;28.68;35.36
61014;BME280;46899;47.542;19.082;2023-05-29T14:36:27;100304.44;;;28.15;34.66
61014;BME280;46899;47.542;19.082;2023-05-29T14:39:30;100311.81;;;27.47;37.52
61014;BME280;46899;47.542;19.082;2023-05-29T14:42:32;100315.37;;;26.88;39.90
61014;BME280;46899;47.542;19.082;2023-05-29T14:45:35;100318.03;;;26.63;41.06
61014;BME280;46899;47.542;19.082;2023-05-29T14:48:38;100319.22;;;26.42;42.06
61014;BME280;46899;47.542;19.082;2023-05-29T14:51:40;100314.44;;;25.93;42.65
61014;BME280;46899;47.542;19.082;2023-05-29T14:54:45;100309.91;;;25.58;43.89
61014;BME280;46899;47.542;19.082;2023-05-29T14:57:47;100319.50;;;25.51;43.57
61014;BME280;46899;47.542;19.082;2023-05-29T15:00:50;100314.59;;;24.64;51.19
61014;BME280;46899;47.542;19.082;2023-05-29T15:03:52;100309.81;;;22.31;67.38
61014;BME280;46899;47.542;19.082;2023-05-29T15:06:55;100319.63;;;20.90;76.25
61014;BME280;46899;47.542;19.082;2023-05-29T15:10:08;100318.84;;;20.09;85.69
61014;BME280;46899;47.542;19.082;2023-05-29T15:13:11;100315.53;;;19.94;95.11
61014;BME280;46899;47.542;19.082;2023-05-29T15:16:13;100302.50;;;20.15;96.07
61014;BME280;46899;47.542;19.082;2023-05-29T15:19:16;100294.22;;;20.19;100.00
61014;BME280;46899;47.542;19.082;2023-05-29T15:22:18;100294.94;;;20.21;99.62
61014;BME280;46899;47.542;19.082;2023-05-29T15:25:21;100293.72;;;20.49;94.82
61014;BME280;46899;47.542;19.082;2023-05-29T15:28:25;100285.94;;;20.92;94.90
61014;BME280;46899;47.542;19.082;2023-05-29T15:31:28;100290.78;;;21.31;84.57
61014;BME280;46899;47.542;19.082;2023-05-29T15:34:30;100289.94;;;21.73;83.09
61014;BME280;46899;47.542;19.082;2023-05-29T15:37:33;100281.22;;;22.14;81.28
61014;BME280;46899;47.542;19.082;2023-05-29T15:40:36;100292.31;;;22.61;74.71
61014;BME280;46899;47.542;19.082;2023-05-29T15:43:38;100287.34;;;23.07;75.90
61014;BME280;46899;47.542;19.082;2023-05-29T15:46:41;100285.94;;;23.43;67.93
61014;BME280;46899;47.542;19.082;2023-05-29T15:49:47;100286.69;;;23.83;64.77
61014;BME280;46899;47.542;19.082;2023-05-29T15:52:49;100291.72;;;24.05;60.54
61014;BME280;46899;47.542;19.082;2023-05-29T15:55:57;100292.00;;;24.31;55.56
61014;BME280;46899;47.542;19.082;2023-05-29T15:59:00;100293.06;;;24.57;53.53